createdAt,value
2024-05-09T00:01:37.146Z,100487.02
2024-05-09T00:04:09.206Z,100484.17
2024-05-09T00:06:39.739Z,100483.27
2024-05-09T00:09:11.460Z,100488.23
2024-05-09T00:11:41.978Z,100489.92
2024-05-09T00:14:13.829Z,100485.41
2024-05-09T00:16:44.407Z,100484.42
2024-05-09T00:19:16.382Z,100486.51
2024-05-09T00:21:47.278Z,100485.34
2024-05-09T00:24:19.034Z,100488.78
2024-05-09T00:26:49.469Z,100495.84
2024-05-09T00:29:22.001Z,100502.99
2024-05-09T00:31:52.633Z,100501.91
2024-05-09T00:34:24.686Z,100492.92
2024-05-09T00:36:55.467Z,100490.54
2024-05-09T00:39:27.330Z,100489.52
2024-05-09T00:41:57.748Z,100487.39
2024-05-09T00:44:29.261Z,100487.46
2024-05-09T00:46:59.953Z,100485.66
2024-05-09T00:49:31.768Z,100484.73
2024-05-09T00:52:02.421Z,100483.38
2024-05-09T00:54:34.294Z,100485.29
2024-05-09T00:57:05.063Z,100485.42
2024-05-09T00:59:37.246Z,100483.88
2024-05-09T01:02:07.730Z,100488.73
2024-05-09T01:04:39.749Z,100494.49
2024-05-09T01:07:11.112Z,100490.34
2024-05-09T01:09:42.880Z,100487.19
2024-05-09T01:12:13.914Z,100488.14
2024-05-09T01:14:45.685Z,100486.04
2024-05-09T01:17:16.219Z,100485.04
2024-05-09T01:19:48.373Z,100486.40
2024-05-09T01:22:18.905Z,100487.23
2024-05-09T01:24:52.117Z,100490.45
2024-05-09T01:27:22.727Z,100494.98
2024-05-09T01:29:54.481Z,100496.41
2024-05-09T01:32:25.028Z,100498.96
2024-05-09T01:34:57.030Z,100496.55
2024-05-09T01:37:27.608Z,100495.61
2024-05-09T01:39:59.261Z,100493.61
2024-05-09T01:42:30.000Z,100496.50
2024-05-09T01:45:01.851Z,100490.73
2024-05-09T01:47:32.406Z,100494.45
2024-05-09T01:50:06.799Z,100495.80
2024-05-09T01:52:40.610Z,100495.33
2024-05-09T01:55:11.084Z,100496.06
2024-05-09T01:57:42.895Z,100494.18
2024-05-09T02:00:18.822Z,100490.70
2024-05-09T02:02:59.465Z,100493.83
2024-05-09T02:05:30.675Z,100490.84
2024-05-09T02:08:02.500Z,100490.92
2024-05-09T02:10:33.631Z,100494.10
2024-05-09T02:13:07.762Z,100488.55
2024-05-09T02:15:38.203Z,100493.71
2024-05-09T02:18:10.375Z,100488.30
2024-05-09T02:20:42.587Z,100489.55
2024-05-09T02:23:15.157Z,100484.27
2024-05-09T02:25:45.799Z,100485.47
2024-05-09T02:28:17.611Z,100484.63
2024-05-09T02:30:48.034Z,100482.63
2024-05-09T02:33:20.058Z,100481.45
2024-05-09T02:35:50.627Z,100481.09
2024-05-09T02:38:22.210Z,100482.90
2024-05-09T02:40:52.738Z,100486.34
2024-05-09T02:43:24.671Z,100484.23
2024-05-09T02:45:55.199Z,100483.27
2024-05-09T02:48:27.011Z,100484.02
2024-05-09T02:50:57.616Z,100486.44
2024-05-09T02:53:29.498Z,100492.22
2024-05-09T02:55:59.990Z,100498.16
2024-05-09T02:58:31.632Z,100494.91
2024-05-09T03:01:02.349Z,100498.52
2024-05-09T03:03:34.778Z,100499.50
2024-05-09T03:06:05.674Z,100497.52
2024-05-09T03:08:37.738Z,100498.38
2024-05-09T03:11:08.424Z,100500.86
2024-05-09T03:13:41.550Z,100502.27
2024-05-09T03:16:11.979Z,100498.98
2024-05-09T03:18:44.044Z,100502.91
2024-05-09T03:21:14.705Z,100502.00
2024-05-09T03:23:46.442Z,100502.85
2024-05-09T03:26:18.303Z,100503.14
2024-05-09T03:28:50.164Z,100504.77
2024-05-09T03:31:20.583Z,100506.60
2024-05-09T03:33:52.433Z,100505.75
2024-05-09T03:36:22.973Z,100503.36
2024-05-09T03:38:54.735Z,100500.83
2024-05-09T03:41:25.308Z,100504.05
2024-05-09T03:43:56.970Z,100498.35
2024-05-09T03:46:27.547Z,100497.66
2024-05-09T03:48:59.373Z,100496.19
2024-05-09T03:51:30.273Z,100501.13
2024-05-09T03:54:02.104Z,100497.10
2024-05-09T03:56:32.423Z,100497.91
2024-05-09T03:59:04.440Z,100502.37
2024-05-09T04:01:35.165Z,100503.02
2024-05-09T04:04:09.014Z,100504.13
2024-05-09T04:06:39.461Z,100502.70
2024-05-09T04:09:11.216Z,100505.46
2024-05-09T04:11:41.781Z,100508.15
2024-05-09T04:14:13.703Z,100509.98
2024-05-09T04:16:44.284Z,100508.58
2024-05-09T04:19:16.204Z,100512.10
2024-05-09T04:21:46.963Z,100515.72
2024-05-09T04:24:18.595Z,100518.13
2024-05-09T04:26:49.136Z,100518.50
2024-05-09T04:29:21.253Z,100523.23
2024-05-09T04:31:51.983Z,100524.84
2024-05-09T04:34:23.763Z,100531.71
2024-05-09T04:36:55.638Z,100535.80
2024-05-09T04:39:27.775Z,100536.44
2024-05-09T04:41:58.225Z,100537.24
2024-05-09T04:44:29.725Z,100535.19
2024-05-09T04:47:00.686Z,100533.32
2024-05-09T04:49:32.684Z,100535.39
2024-05-09T04:52:03.205Z,100543.23
2024-05-09T04:54:36.583Z,100542.60
2024-05-09T04:57:07.539Z,100540.55
2024-05-09T04:59:39.525Z,100541.85
2024-05-09T05:02:10.305Z,100543.04
2024-05-09T05:04:42.147Z,100543.52
2024-05-09T05:07:12.821Z,100547.08
2024-05-09T05:09:44.591Z,100549.40
2024-05-09T05:12:33.456Z,100551.66
2024-05-09T05:15:05.718Z,100555.30
2024-05-09T05:17:36.428Z,100551.81
2024-05-09T05:20:12.730Z,100550.61
2024-05-09T05:22:47.938Z,100557.41
2024-05-09T05:25:18.375Z,100556.02
2024-05-09T05:27:50.031Z,100550.88
2024-05-09T05:30:25.282Z,100549.25
2024-05-09T05:33:01.384Z,100551.59
2024-05-09T05:35:32.114Z,100550.30
2024-05-09T05:38:04.699Z,100549.78
2024-05-09T05:40:38.322Z,100545.54
2024-05-09T05:43:17.700Z,100544.98
2024-05-09T05:45:49.332Z,100540.93
2024-05-09T05:48:19.964Z,100539.31
2024-05-09T05:50:51.928Z,100538.73
2024-05-09T05:53:22.751Z,100545.59
2024-05-09T05:55:54.558Z,100540.94
2024-05-09T05:58:25.181Z,100541.82
2024-05-09T06:00:56.932Z,100540.73
2024-05-09T06:03:29.491Z,100537.96
2024-05-09T06:06:02.888Z,100534.81
2024-05-09T06:08:33.631Z,100534.37
2024-05-09T06:11:05.433Z,100530.41
2024-05-09T06:13:36.108Z,100533.75
2024-05-09T06:16:07.964Z,100537.13
2024-05-09T06:18:38.910Z,100535.45
2024-05-09T06:21:10.792Z,100538.61
2024-05-09T06:23:47.921Z,100537.05
2024-05-09T06:26:20.081Z,100539.97
2024-05-09T06:28:50.720Z,100539.59
2024-05-09T06:31:22.399Z,100540.52
2024-05-09T06:33:52.937Z,100539.27
2024-05-09T06:36:24.905Z,100540.08
2024-05-09T06:38:55.317Z,100537.67
2024-05-09T06:41:27.013Z,100537.22
2024-05-09T06:43:57.618Z,100538.19
2024-05-09T06:46:29.663Z,100537.99
2024-05-09T06:49:06.714Z,100539.91
2024-05-09T06:51:39.012Z,100543.20
2024-05-09T06:54:09.555Z,100546.78
2024-05-09T06:56:41.168Z,100544.48
2024-05-09T06:59:11.983Z,100544.56
2024-05-09T07:01:43.798Z,100542.73
2024-05-09T07:04:14.552Z,100540.97
2024-05-09T07:06:46.594Z,100539.42
2024-05-09T07:09:17.131Z,100536.66
2024-05-09T07:11:49.004Z,100534.72
2024-05-09T07:14:19.937Z,100533.04
2024-05-09T07:16:51.862Z,100534.86
2024-05-09T07:19:22.471Z,100533.75
2024-05-09T07:21:54.281Z,100537.27
2024-05-09T07:24:24.598Z,100537.82
2024-05-09T07:26:56.672Z,100540.80
2024-05-09T07:29:27.239Z,100538.04
2024-05-09T07:31:59.085Z,100537.58
2024-05-09T07:34:29.765Z,100537.11
2024-05-09T07:37:02.265Z,100531.24
2024-05-09T07:39:32.793Z,100533.89
2024-05-09T07:42:05.181Z,100530.64
2024-05-09T07:44:35.754Z,100528.25
2024-05-09T07:48:14.596Z,100529.89
2024-05-09T07:51:47.614Z,100523.59
2024-05-09T07:53:35.380Z,100527.30
2024-05-09T07:55:44.123Z,100527.30
2024-05-09T07:58:14.832Z,100525.39
2024-05-09T08:00:46.595Z,100523.81
2024-05-09T08:03:17.248Z,100521.87
2024-05-09T08:05:49.398Z,100522.04
2024-05-09T08:08:20.253Z,100522.58
2024-05-09T08:10:52.309Z,100522.21
2024-05-09T08:13:23.147Z,100525.26
2024-05-09T08:15:55.179Z,100524.23
2024-05-09T08:18:25.654Z,100521.73
2024-05-09T08:20:58.055Z,100523.98
2024-05-09T08:23:28.992Z,100523.36
2024-05-09T08:26:01.051Z,100526.36
2024-05-09T08:28:31.512Z,100528.24
2024-05-09T08:31:06.661Z,100525.14
2024-05-09T08:33:51.294Z,100520.41
2024-05-09T08:36:23.236Z,100515.66
2024-05-09T08:38:53.864Z,100513.38
2024-05-09T08:41:25.624Z,100519.58
2024-05-09T08:43:56.145Z,100514.58
2024-05-09T08:46:27.912Z,100516.92
2024-05-09T08:48:58.638Z,100513.95
2024-05-09T08:51:30.472Z,100516.02
2024-05-09T08:54:01.033Z,100513.69
2024-05-09T08:56:32.791Z,100510.91
2024-05-09T08:59:03.625Z,100513.91
2024-05-09T09:01:37.826Z,100515.07
2024-05-09T09:04:11.024Z,100513.23
2024-05-09T09:06:41.399Z,100518.45
2024-05-09T09:09:13.422Z,100516.33
2024-05-09T09:11:43.902Z,100516.66
2024-05-09T09:14:15.612Z,100513.38
2024-05-09T09:16:46.237Z,100514.63
2024-05-09T09:19:18.657Z,100515.52
2024-05-09T09:21:49.696Z,100513.36
2024-05-09T09:24:21.403Z,100514.39
2024-05-09T09:26:51.830Z,100514.52
2024-05-09T09:29:23.685Z,100518.52
2024-05-09T09:32:04.360Z,100517.77
2024-05-09T09:34:36.738Z,100518.83
2024-05-09T09:37:08.786Z,100514.73
2024-05-09T09:39:42.058Z,100515.34
2024-05-09T09:42:12.519Z,100514.64
2024-05-09T09:44:47.798Z,100511.20
2024-05-09T09:47:23.364Z,100511.52
2024-05-09T09:49:53.958Z,100508.71
2024-05-09T09:52:26.443Z,100504.13
2024-05-09T09:54:57.311Z,100507.33
2024-05-09T09:57:29.550Z,100504.14
2024-05-09T10:00:00.181Z,100499.79
2024-05-09T10:02:32.613Z,100497.01
2024-05-09T10:05:03.478Z,100498.61
2024-05-09T10:07:40.330Z,100498.92
2024-05-09T10:10:16.144Z,100494.21
2024-05-09T10:13:03.701Z,100492.33
2024-05-09T10:15:54.499Z,100498.73
2024-05-09T10:18:29.583Z,100499.85
2024-05-09T10:21:04.458Z,100492.83
2024-05-09T10:23:36.646Z,100490.52
2024-05-09T10:26:09.529Z,100491.95
2024-05-09T10:28:42.624Z,100487.12
2024-05-09T10:31:15.778Z,100486.86
2024-05-09T10:33:48.905Z,100485.89
2024-05-09T10:36:22.083Z,100482.31
2024-05-09T10:38:53.755Z,100479.32
2024-05-09T10:41:25.598Z,100477.98
2024-05-09T10:43:55.936Z,100472.00
2024-05-09T10:46:27.709Z,100469.23
2024-05-09T10:48:59.621Z,100467.70
2024-05-09T10:51:32.818Z,100466.26
2024-05-09T10:54:03.683Z,100461.34
2024-05-09T10:56:35.435Z,100466.73
2024-05-09T10:59:05.906Z,100464.18
2024-05-09T11:01:37.762Z,100460.88
2024-05-09T11:04:08.662Z,100455.39
2024-05-09T11:06:40.420Z,100456.16
2024-05-09T11:09:11.141Z,100455.24
2024-05-09T11:11:43.022Z,100457.13
2024-05-09T11:14:13.848Z,100453.64
2024-05-09T11:16:45.300Z,100447.30
2024-05-09T11:19:16.084Z,100442.86
2024-05-09T11:21:51.921Z,100445.94
2024-05-09T11:24:23.542Z,100447.20
2024-05-09T11:26:53.961Z,100447.45
2024-05-09T11:29:39.231Z,100444.89
2024-05-09T11:32:12.003Z,100445.48
2024-05-09T11:34:42.821Z,100441.01
2024-05-09T11:37:15.045Z,100436.71
2024-05-09T11:39:45.800Z,100433.56
2024-05-09T11:42:17.702Z,100431.30
2024-05-09T11:44:48.138Z,100433.80
2024-05-09T11:47:21.695Z,100435.14
2024-05-09T11:49:53.262Z,100434.09
2024-05-09T11:52:25.193Z,100424.41
2024-05-09T11:54:56.144Z,100426.60
2024-05-09T11:57:29.511Z,100422.15
2024-05-09T12:00:00.024Z,100420.17
2024-05-09T12:02:32.058Z,100425.16
2024-05-09T12:05:02.740Z,100427.28
2024-05-09T12:07:34.684Z,100424.38
2024-05-09T12:10:09.433Z,100420.96
2024-05-09T12:12:45.691Z,100423.38
2024-05-09T12:15:16.953Z,100420.35
2024-05-09T12:17:50.924Z,100414.86
2024-05-09T12:20:28.741Z,100409.69
2024-05-09T12:23:09.926Z,100405.66
2024-05-09T12:25:41.169Z,100402.03
2024-05-09T12:28:12.977Z,100401.95
2024-05-09T12:30:43.701Z,100392.59
2024-05-09T12:33:15.925Z,100387.88
2024-05-09T12:35:49.235Z,100392.91
2024-05-09T12:38:22.596Z,100384.91
2024-05-09T12:40:53.149Z,100393.02
2024-05-09T12:43:25.203Z,100387.94
2024-05-09T12:45:55.783Z,100389.19
2024-05-09T12:48:27.849Z,100384.84
2024-05-09T12:50:58.571Z,100381.54
2024-05-09T12:53:30.272Z,100376.35
2024-05-09T12:56:02.997Z,100372.05
2024-05-09T12:58:36.451Z,100368.15
2024-05-09T13:01:07.038Z,100362.38
2024-05-09T13:03:39.023Z,100361.48
2024-05-09T13:06:09.795Z,100366.67
2024-05-09T13:08:41.748Z,100364.27
2024-05-09T13:11:13.075Z,100366.55
2024-05-09T13:13:44.842Z,100365.08
2024-05-09T13:16:15.204Z,100364.13
2024-05-09T13:18:47.123Z,100362.63
2024-05-09T13:21:17.776Z,100359.35
2024-05-09T13:23:49.520Z,100357.16
2024-05-09T13:26:19.947Z,100357.40
2024-05-09T13:28:51.490Z,100350.08
2024-05-09T13:31:22.076Z,100345.80
2024-05-09T13:33:53.990Z,100343.17
2024-05-09T13:36:24.518Z,100338.54
2024-05-09T13:38:56.653Z,100334.93
2024-05-09T13:41:27.527Z,100333.04
2024-05-09T13:43:59.379Z,100335.93
2024-05-09T13:46:29.861Z,100337.97
2024-05-09T13:49:03.200Z,100334.86
2024-05-09T13:51:33.847Z,100332.85
2024-05-09T13:54:05.585Z,100333.91
2024-05-09T13:56:37.469Z,100332.79
2024-05-09T13:59:09.412Z,100332.49
2024-05-09T14:01:39.928Z,100334.19
2024-05-09T14:04:12.159Z,100333.66
2024-05-09T14:06:42.902Z,100332.19
2024-05-09T14:09:14.703Z,100331.56
2024-05-09T14:11:45.185Z,100330.36
2024-05-09T14:14:17.202Z,100331.77
2024-05-09T14:16:47.566Z,100328.16
2024-05-09T14:19:19.606Z,100323.12
2024-05-09T14:21:50.236Z,100323.73
2024-05-09T14:24:21.980Z,100322.13
2024-05-09T14:26:52.391Z,100318.75
2024-05-09T14:29:24.463Z,100320.77
2024-05-09T14:31:54.883Z,100321.25
2024-05-09T14:34:27.192Z,100322.74
2024-05-09T14:36:58.899Z,100321.29
2024-05-09T14:39:30.536Z,100322.85
2024-05-09T14:42:01.216Z,100324.10
2024-05-09T14:44:33.080Z,100317.27
2024-05-09T14:47:04.128Z,100315.31
2024-05-09T14:49:36.308Z,100314.41
2024-05-09T14:52:07.176Z,100307.23
2024-05-09T14:54:39.172Z,100307.54
2024-05-09T14:57:09.601Z,100304.71
2024-05-09T14:59:41.358Z,100303.31
2024-05-09T15:02:12.427Z,100303.45
2024-05-09T15:04:44.522Z,100301.80
2024-05-09T15:07:15.422Z,100299.58
2024-05-09T15:09:47.488Z,100295.49
2024-05-09T15:12:18.088Z,100298.25
2024-05-09T15:14:49.857Z,100293.20
2024-05-09T15:17:20.385Z,100292.71
2024-05-09T15:19:52.294Z,100291.27
2024-05-09T15:22:22.927Z,100284.73
2024-05-09T15:24:54.908Z,100285.08
2024-05-09T15:27:25.888Z,100282.25
2024-05-09T15:29:57.733Z,100279.98
2024-05-09T15:32:29.851Z,100277.68
2024-05-09T15:35:01.757Z,100277.35
2024-05-09T15:37:32.565Z,100274.50
2024-05-09T15:40:07.450Z,100271.82
2024-05-09T15:42:43.039Z,100270.48
2024-05-09T15:45:14.006Z,100269.75
2024-05-09T15:47:45.947Z,100267.73
2024-05-09T15:50:20.632Z,100266.83
2024-05-09T15:53:01.570Z,100269.84
2024-05-09T15:55:34.346Z,100266.23
2024-05-09T15:58:07.338Z,100262.00
2024-05-09T16:00:41.641Z,100260.37
2024-05-09T16:03:15.793Z,100258.59
2024-05-09T16:05:47.928Z,100256.17
2024-05-09T16:08:19.996Z,100257.17
2024-05-09T16:10:51.532Z,100260.80
2024-05-09T16:13:23.693Z,100258.23
2024-05-09T16:15:54.417Z,100253.65
2024-05-09T16:18:26.540Z,100260.20
2024-05-09T16:21:00.543Z,100257.70
2024-05-09T16:23:32.526Z,100260.00
2024-05-09T16:26:03.027Z,100260.71
2024-05-09T16:28:34.907Z,100255.58
2024-05-09T16:31:05.940Z,100253.76
2024-05-09T16:33:40.410Z,100255.30
2024-05-09T16:36:13.977Z,100253.19
2024-05-09T16:38:45.568Z,100253.73
2024-05-09T16:41:17.452Z,100256.89
2024-05-09T16:43:47.894Z,100262.36
2024-05-09T16:46:19.917Z,100263.88
2024-05-09T16:48:51.105Z,100259.19
2024-05-09T16:51:23.045Z,100262.98
2024-05-09T16:53:54.344Z,100262.08
2024-05-09T16:56:27.417Z,100257.70
2024-05-09T16:58:57.921Z,100260.54
2024-05-09T17:01:31.077Z,100255.48
2024-05-09T17:04:01.860Z,100254.88
2024-05-09T17:06:33.854Z,100253.86
2024-05-09T17:09:08.632Z,100259.23
2024-05-09T17:11:43.846Z,100259.31
2024-05-09T17:14:14.911Z,100256.39
2024-05-09T17:16:46.593Z,100256.91
2024-05-09T17:19:17.886Z,100255.15
2024-05-09T17:21:49.704Z,100256.15
2024-05-09T17:24:20.307Z,100255.23
2024-05-09T17:26:53.288Z,100253.65
2024-05-09T17:29:23.826Z,100256.49
2024-05-09T17:31:55.787Z,100255.00
2024-05-09T17:34:26.894Z,100253.18
2024-05-09T17:37:00.433Z,100250.40
2024-05-09T17:39:31.094Z,100249.85
2024-05-09T17:42:03.423Z,100249.98
2024-05-09T17:44:33.866Z,100246.73
2024-05-09T17:47:06.258Z,100250.87
2024-05-09T17:49:36.780Z,100247.00
2024-05-09T17:52:08.793Z,100250.39
2024-05-09T17:54:39.535Z,100248.73
2024-05-09T17:57:11.408Z,100245.14
2024-05-09T17:59:41.935Z,100248.84
2024-05-09T18:02:13.814Z,100252.42
2024-05-09T18:04:44.638Z,100256.45
2024-05-09T18:07:16.571Z,100256.46
2024-05-09T18:09:47.179Z,100258.39
2024-05-09T18:12:19.210Z,100261.49
2024-05-09T18:14:49.836Z,100261.39
2024-05-09T18:17:23.565Z,100263.30
2024-05-09T18:19:57.067Z,100263.27
2024-05-09T18:22:28.299Z,100264.27
2024-05-09T18:25:00.237Z,100268.77
2024-05-09T18:27:30.938Z,100267.20
2024-05-09T18:30:07.094Z,100272.73
2024-05-09T18:32:39.696Z,100275.75
2024-05-09T18:35:10.948Z,100272.52
2024-05-09T18:37:43.318Z,100278.47
2024-05-09T18:40:20.938Z,100282.58
2024-05-09T18:43:00.895Z,100285.91
2024-05-09T18:45:31.444Z,100288.00
2024-05-09T18:48:05.051Z,100290.42
2024-05-09T18:50:39.495Z,100292.57
2024-05-09T18:53:14.090Z,100294.08
2024-05-09T18:55:45.003Z,100298.05
2024-05-09T18:58:17.838Z,100303.29
2024-05-09T19:00:50.521Z,100304.45
2024-05-09T19:03:24.691Z,100306.39
2024-05-09T19:05:55.582Z,100308.41
2024-05-09T19:08:28.658Z,100309.73
2024-05-09T19:10:59.535Z,100313.67
2024-05-09T19:13:32.009Z,100316.75
2024-05-09T19:16:02.563Z,100321.34
2024-05-09T19:18:34.630Z,100323.82
2024-05-09T19:21:05.724Z,100327.45
2024-05-09T19:23:38.556Z,100330.80
2024-05-09T19:26:16.097Z,100329.89
2024-05-09T19:28:46.933Z,100326.14
2024-05-09T19:31:19.056Z,100328.56
2024-05-09T19:33:49.797Z,100333.16
2024-05-09T19:36:21.697Z,100334.88
2024-05-09T19:38:52.326Z,100336.23
2024-05-09T19:41:24.085Z,100340.81
2024-05-09T19:43:54.824Z,100339.41
2024-05-09T19:46:26.859Z,100338.21
2024-05-09T19:48:58.509Z,100340.91
2024-05-09T19:51:30.796Z,100339.35
2024-05-09T19:54:01.446Z,100341.98
2024-05-09T19:56:33.289Z,100341.98
2024-05-09T19:59:04.361Z,100340.69
2024-05-09T20:01:36.415Z,100342.06
2024-05-09T20:04:07.385Z,100341.10
2024-05-09T20:06:39.997Z,100339.06
2024-05-09T20:09:11.069Z,100338.81
2024-05-09T20:11:42.945Z,100336.98
2024-05-09T20:14:13.571Z,100338.71
2024-05-09T20:16:45.324Z,100336.34
2024-05-09T20:19:15.982Z,100337.02
2024-05-09T20:21:48.273Z,100339.78
2024-05-09T20:24:18.840Z,100339.08
2024-05-09T20:26:50.402Z,100339.98
2024-05-09T20:29:21.649Z,100335.23
2024-05-09T20:31:53.646Z,100337.60
2024-05-09T20:34:24.238Z,100335.66
2024-05-09T20:36:56.362Z,100335.85
2024-05-09T20:39:27.229Z,100339.14
2024-05-09T20:41:59.094Z,100336.09
2024-05-09T20:44:29.540Z,100333.59
2024-05-09T20:47:01.394Z,100331.09
2024-05-09T20:49:32.183Z,100330.81
2024-05-09T20:52:04.611Z,100333.79
2024-05-09T20:54:35.130Z,100334.65
2024-05-09T20:57:07.384Z,100332.64
2024-05-09T20:59:39.141Z,100335.54
2024-05-09T21:02:11.182Z,100329.58
2024-05-09T21:04:42.080Z,100335.54
2024-05-09T21:07:14.228Z,100338.14
2024-05-09T21:09:44.792Z,100342.45
2024-05-09T21:12:19.145Z,100339.63
2024-05-09T21:14:51.949Z,100337.72
2024-05-09T21:17:22.843Z,100335.95
2024-05-09T21:19:55.032Z,100338.79
2024-05-09T21:22:25.608Z,100339.91
2024-05-09T21:24:57.357Z,100338.38
2024-05-09T21:27:27.974Z,100332.20
2024-05-09T21:29:59.853Z,100333.04
2024-05-09T21:32:30.688Z,100333.48
2024-05-09T21:35:02.730Z,100332.69
2024-05-09T21:37:33.351Z,100335.89
2024-05-09T21:40:11.279Z,100336.41
2024-05-09T21:42:45.813Z,100335.41
2024-05-09T21:45:16.209Z,100332.20
2024-05-09T21:47:48.117Z,100335.08
2024-05-09T21:50:23.467Z,100337.94
2024-05-09T21:53:03.879Z,100340.20
2024-05-09T21:55:34.554Z,100337.66
2024-05-09T21:58:06.905Z,100339.55
2024-05-09T22:00:39.590Z,100337.49
2024-05-09T22:03:12.394Z,100341.91
2024-05-09T22:05:44.863Z,100342.35
2024-05-09T22:08:17.290Z,100341.72
2024-05-09T22:10:47.974Z,100340.58
2024-05-09T22:13:20.473Z,100342.02
2024-05-09T22:15:51.177Z,100337.67
2024-05-09T22:18:23.229Z,100335.63
2024-05-09T22:20:55.163Z,100330.05
2024-05-09T22:23:26.908Z,100329.32
2024-05-09T22:25:57.328Z,100333.19
2024-05-09T22:28:29.020Z,100333.69
2024-05-09T22:30:59.733Z,100332.89
2024-05-09T22:33:31.654Z,100335.50
2024-05-09T22:36:02.219Z,100334.75
2024-05-09T22:38:33.867Z,100333.04
2024-05-09T22:41:07.861Z,100334.83
2024-05-09T22:43:39.958Z,100335.05
2024-05-09T22:46:10.496Z,100331.64
2024-05-09T22:48:42.493Z,100335.36
2024-05-09T22:51:13.056Z,100335.13
2024-05-09T22:53:44.820Z,100339.20
2024-05-09T22:56:15.239Z,100335.29
2024-05-09T22:58:47.011Z,100333.89
2024-05-09T23:01:17.565Z,100333.75
2024-05-09T23:03:49.799Z,100337.45
2024-05-09T23:06:20.323Z,100336.40
2024-05-09T23:08:52.083Z,100336.27
2024-05-09T23:11:22.565Z,100337.28
2024-05-09T23:13:54.430Z,100335.08
2024-05-09T23:16:24.907Z,100331.97
2024-05-09T23:18:56.948Z,100328.80
2024-05-09T23:21:27.385Z,100327.40
2024-05-09T23:23:59.452Z,100323.15
2024-05-09T23:26:29.779Z,100324.32
2024-05-09T23:29:02.232Z,100322.34
2024-05-09T23:31:32.734Z,100323.05
2024-05-09T23:34:04.837Z,100320.03
2024-05-09T23:36:35.485Z,100319.45
2024-05-09T23:39:07.657Z,100316.76
2024-05-09T23:41:37.968Z,100315.94
2024-05-09T23:44:09.844Z,100311.85
2024-05-09T23:46:40.268Z,100312.41
2024-05-09T23:49:12.449Z,100309.55
2024-05-09T23:51:42.829Z,100310.06
2024-05-09T23:54:14.601Z,100313.41
2024-05-09T23:56:45.128Z,100313.56
2024-05-09T23:59:16.685Z,100311.99
